Time;durP1;ratioP1;P1;durP2;ratioP2;P2;SDS_P1;SDS_P2;PMS_P1;PMS_P2;Temp;Humidity;BMP_temperature;BMP_pressure;BME280_temperature;BME280_humidity;BME280_pressure;Samples;Min_cycle;Max_cycle;Signal;HPM_P1;HPM_P2
2023/12/26 00:00:16;;;;;;;6.78;2.20;;;9.20;99.90;;;;;;4901635;29;20055;-95
2023/12/26 00:02:42;;;;;;;15.57;6.05;;;9.00;99.90;;;;;;4901874;29;20195;-96
2023/12/26 00:05:17;;;;;;;6.78;2.03;;;9.20;99.90;;;;;;4902588;29;20108;-94
2023/12/26 00:08:19;;;;;;;10.80;3.92;;;9.20;99.90;;;;;;4902575;29;20048;-94
2023/12/26 00:11:02;;;;;;;10.05;2.50;;;8.90;99.90;;;;;;4902002;23;20060;-94
2023/12/26 00:13:31;;;;;;;12.10;4.55;;;9.30;99.90;;;;;;4883358;29;20051;-93
2023/12/26 00:16:33;;;;;;;61.40;32.47;;;9.20;99.90;;;;;;4881979;29;20044;-95
2023/12/26 00:18:59;;;;;;;31.00;14.82;;;9.20;99.90;;;;;;4881986;29;20055;-95
2023/12/26 00:21:33;;;;;;;18.42;7.93;;;9.20;99.90;;;;;;4882681;29;20052;-94
2023/12/26 00:23:59;;;;;;;6.88;2.35;;;9.20;99.90;;;;;;4881654;29;20055;-94
2023/12/26 00:26:45;;;;;;;10.13;3.45;;;9.30;99.90;;;;;;4883449;29;20041;-94
2023/12/26 00:29:11;;;;;;;7.30;2.30;;;9.00;99.90;;;;;;4881710;29;20063;-94
2023/12/26 00:31:43;;;;;;;33.40;12.73;;;9.30;99.90;;;;;;4882257;29;20045;-93
2023/12/26 00:34:15;;;;;;;8.50;2.80;;;9.20;99.90;;;;;;4881636;29;20087;-93
2023/12/26 00:36:56;;;;;;;28.05;14.10;;;9.40;99.90;;;;;;4881611;29;20056;-92
2023/12/26 00:40:16;;;;;;;;;;;;;;;;;;;;;
2023/12/26 00:43:25;;;;;;;;;;;;;;;;;;;;;
2023/12/26 00:49:22;;;;;;;12.15;5.63;;;8.30;99.90;;;;;;4859065;29;20110;-91
2023/12/26 00:52:13;;;;;;;10.30;4.63;;;9.40;99.90;;;;;;4863631;23;20135;-92
2023/12/26 00:54:44;;;;;;;9.02;3.50;;;9.50;99.90;;;;;;4862555;29;20144;-92
2023/12/26 00:57:42;;;;;;;9.02;4.28;;;9.30;99.90;;;;;;4863343;29;20045;-93
2023/12/26 01:00:26;;;;;;;;;;;;;;;;;;;;;
2023/12/26 01:03:21;;;;;;;;;;;;;;;;;;;;;
2023/12/26 01:06:50;;;;;;;;;;;;;;;;;;;;;
2023/12/26 01:09:54;;;;;;;;;;;;;;;;;;;;;
2023/12/26 01:23:34;;;;;;;3.20;1.20;;;9.40;99.90;;;;;;4819966;29;20052;-91
2023/12/26 01:26:37;;;;;;;;;;;;;;;;;;;;;
2023/12/26 01:33:03;;;;;;;;;;;;;;;;;;;;;
2023/12/26 01:36:14;;;;;;;4.60;1.30;;;9.90;99.90;;;;;;4771770;29;20059;-93
2023/12/26 01:39:21;;;;;;;3.38;1.33;;;9.50;99.90;;;;;;4753941;30;20139;-93
2023/12/26 01:42:24;;;;;;;;;;;;;;;;;;;;;
2023/12/26 01:45:38;;;;;;;3.13;1.10;;;9.50;99.90;;;;;;4740885;30;20083;-94
2023/12/26 01:48:15;;;;;;;5.50;1.17;;;9.50;99.90;;;;;;4729863;30;20071;-93
2023/12/26 01:51:00;;;;;;;3.00;1.17;;;9.50;99.90;;;;;;4819231;29;20046;-93
2023/12/26 01:53:29;;;;;;;2.63;1.10;;;9.40;99.90;;;;;;4850348;29;20030;-94
2023/12/26 01:55:59;;;;;;;5.20;1.20;;;8.20;99.90;;;;;;4900080;29;20063;-95
2023/12/26 01:58:37;;;;;;;3.83;1.02;;;9.30;99.90;;;;;;4908100;29;20048;-93
2023/12/26 02:05:14;;;;;;;5.38;1.20;;;9.20;99.90;;;;;;3111884;23;20082;-92
2023/12/26 02:07:42;;;;;;;7.07;1.35;;;9.70;99.90;;;;;;4885703;23;20079;-94
2023/12/26 02:10:16;;;;;;;5.75;1.27;;;9.10;99.90;;;;;;4903457;29;20094;-93
2023/12/26 02:12:44;;;;;;;4.72;1.10;;;9.10;99.90;;;;;;4909515;23;20166;-93
2023/12/26 02:15:13;;;;;;;6.25;1.48;;;9.10;99.90;;;;;;4902427;29;20058;-94
2023/12/26 02:17:51;;;;;;;6.45;1.50;;;9.20;99.90;;;;;;4903328;29;20044;-95
2023/12/26 02:20:17;;;;;;;3.58;1.10;;;8.70;99.90;;;;;;4884807;29;20055;-93
2023/12/26 02:22:48;;;;;;;7.30;1.50;;;9.20;99.90;;;;;;4894593;23;20053;-96
2023/12/26 02:26:01;;;;;;;5.10;1.27;;;9.10;99.90;;;;;;4900860;29;20127;-94
2023/12/26 02:28:27;;;;;;;8.52;2.08;;;9.20;99.90;;;;;;4883295;29;20044;-93
2023/12/26 02:31:04;;;;;;;;;;;;;;;;;;;;;
2023/12/26 02:33:40;;;;;;;9.05;1.60;;;9.10;99.90;;;;;;4942465;23;20048;-92
2023/12/26 02:36:07;;;;;;;6.72;1.75;;;9.10;99.90;;;;;;4902688;29;20076;-93
2023/12/26 02:38:39;;;;;;;8.63;1.50;;;9.10;99.90;;;;;;4903160;29;20080;-94
2023/12/26 02:41:14;;;;;;;8.65;1.63;;;7.90;99.90;;;;;;4902490;29;20054;-93
2023/12/26 02:43:40;;;;;;;7.03;1.50;;;9.20;99.90;;;;;;4903337;29;20091;-94
2023/12/26 02:46:06;;;;;;;8.65;1.42;;;9.20;99.90;;;;;;4902698;29;20488;-94
2023/12/26 02:48:52;;;;;;;9.93;1.90;;;9.20;99.90;;;;;;4901589;29;20568;-94
2023/12/26 02:51:19;;;;;;;6.65;1.52;;;9.20;99.90;;;;;;4904297;29;20470;-93
2023/12/26 02:53:45;;;;;;;5.57;1.60;;;9.20;99.90;;;;;;4903711;29;20044;-93
2023/12/26 02:56:13;;;;;;;8.35;1.77;;;9.20;99.90;;;;;;4902809;29;20055;-94
2023/12/26 02:58:45;;;;;;;10.25;1.67;;;9.20;99.90;;;;;;4902274;29;20511;-93
2023/12/26 03:01:11;;;;;;;10.48;1.98;;;9.20;99.90;;;;;;4902322;29;20052;-94
2023/12/26 03:03:36;;;;;;;9.38;1.90;;;9.30;99.90;;;;;;4901971;29;20067;-94
2023/12/26 03:06:18;;;;;;;9.18;1.70;;;9.30;99.90;;;;;;4901829;29;20051;-92
2023/12/26 03:11:38;;;;;;;8.93;1.90;;;9.10;99.90;;;;;;4902219;29;20056;-95
2023/12/26 03:14:04;;;;;;;8.53;1.70;;;9.30;99.90;;;;;;4899770;29;20143;-94
2023/12/26 03:16:31;;;;;;;9.67;1.70;;;9.20;99.90;;;;;;4902966;29;20135;-95
2023/12/26 03:18:57;;;;;;;9.38;1.90;;;9.20;99.90;;;;;;4902030;29;20059;-94
2023/12/26 03:21:22;;;;;;;13.10;1.90;;;9.30;99.90;;;;;;4902746;29;20048;-93
2023/12/26 03:23:51;;;;;;;10.15;1.75;;;9.20;99.90;;;;;;4902611;29;20055;-94
2023/12/26 03:26:40;;;;;;;13.93;2.20;;;9.20;99.90;;;;;;4898774;29;20063;-94
2023/12/26 03:29:09;;;;;;;8.85;1.95;;;9.20;99.90;;;;;;4904476;29;20559;-94
2023/12/26 03:31:45;;;;;;;11.13;2.17;;;9.20;99.90;;;;;;4887228;29;20409;-93
2023/12/26 03:34:12;;;;;;;9.95;2.20;;;9.10;99.90;;;;;;4866826;29;20193;-94
2023/12/26 03:36:45;;;;;;;11.30;2.10;;;9.10;99.90;;;;;;4875649;29;20508;-94
2023/12/26 03:39:11;;;;;;;11.63;2.10;;;9.20;99.90;;;;;;4883659;29;20087;-94
2023/12/26 03:41:37;;;;;;;9.40;1.90;;;9.20;99.90;;;;;;4887996;29;20062;-95
2023/12/26 03:44:03;;;;;;;12.27;2.42;;;9.20;99.90;;;;;;4902110;29;20060;-95
2023/12/26 03:46:49;;;;;;;7.72;2.00;;;9.20;99.90;;;;;;4896821;29;20188;-94
2023/12/26 03:49:35;;;;;;;10.77;2.17;;;9.40;99.90;;;;;;4860138;29;20478;-93
2023/12/26 03:52:26;;;;;;;10.47;2.33;;;9.30;99.90;;;;;;4864927;29;20095;-95
2023/12/26 03:57:35;;;;;;;7.43;1.87;;;9.40;99.90;;;;;;5031750;23;20295;-94
2023/12/26 04:00:09;;;;;;;8.15;1.80;;;9.40;99.90;;;;;;4919842;29;20051;-92
2023/12/26 04:02:39;;;;;;;;;;;9.40;99.90;;;;;;4920654;29;20519;-94
2023/12/26 04:05:11;;;;;;;7.45;1.70;;;8.70;99.90;;;;;;4920642;29;20018;-93
2023/12/26 04:11:11;;;;;;;9.70;1.87;;;9.10;99.90;;;;;;4879550;29;20180;-95
2023/12/26 04:13:46;;;;;;;7.30;1.80;;;8.40;99.90;;;;;;4864347;29;20121;-92
2023/12/26 04:16:12;;;;;;;7.20;1.80;;;9.00;99.90;;;;;;4865765;29;20063;-94
2023/12/26 04:18:38;;;;;;;8.57;1.70;;;8.80;99.90;;;;;;4898970;29;20049;-96
2023/12/26 04:21:04;;;;;;;7.20;1.60;;;8.80;99.90;;;;;;4898638;29;20504;-95
2023/12/26 04:23:29;;;;;;;10.30;2.05;;;8.80;99.90;;;;;;4898861;29;20072;-94
2023/12/26 04:26:17;;;;;;;9.35;1.90;;;8.60;99.90;;;;;;4898864;29;20040;-94
2023/12/26 04:28:46;;;;;;;9.77;1.80;;;7.80;99.90;;;;;;4920764;23;20057;-96
2023/12/26 04:31:25;;;;;;;11.00;1.90;;;8.70;99.90;;;;;;4882897;29;20075;-94
2023/12/26 04:33:56;;;;;;;8.30;1.80;;;8.50;99.90;;;;;;4884844;29;20049;-95
2023/12/26 04:36:37;;;;;;;11.20;2.17;;;8.50;99.90;;;;;;4882288;29;20048;-95
2023/12/26 04:39:19;;;;;;;9.70;1.97;;;8.40;99.90;;;;;;4917386;23;20047;-96
2023/12/26 04:41:48;;;;;;;9.83;2.10;;;8.50;99.90;;;;;;4900624;29;20116;-93
2023/12/26 04:44:29;;;;;;;7.93;1.80;;;8.40;99.90;;;;;;4900812;29;20095;-94
2023/12/26 04:46:55;;;;;;;9.05;2.00;;;8.20;99.90;;;;;;4910550;29;20044;-93
2023/12/26 04:49:23;;;;;;;10.73;1.80;;;8.10;99.90;;;;;;4919542;29;20054;-93
2023/12/26 04:52:05;;;;;;;11.57;1.90;;;8.10;99.90;;;;;;4912823;29;20036;-94
2023/12/26 04:54:49;;;;;;;;;;;;;;;;;;;;;
2023/12/26 04:57:40;;;;;;;9.77;1.83;;;7.90;99.90;;;;;;4881574;29;20099;-95
2023/12/26 05:00:07;;;;;;;11.83;2.40;;;7.90;99.90;;;;;;4923329;29;20024;-96
2023/12/26 05:03:08;;;;;;;12.57;2.10;;;7.80;99.90;;;;;;4889243;29;20060;-96
2023/12/26 05:05:35;;;;;;;7.10;2.10;;;7.80;99.90;;;;;;4859641;29;20056;-95
2023/12/26 05:08:04;;;;;;;10.20;2.00;;;7.70;99.90;;;;;;4897104;29;20044;-93
2023/12/26 05:10:33;;;;;;;8.73;1.80;;;7.60;99.90;;;;;;4902106;29;20131;-94
2023/12/26 05:13:14;;;;;;;14.10;1.93;;;7.80;99.90;;;;;;4902937;29;20044;-94
2023/12/26 05:15:40;;;;;;;12.70;2.10;;;7.50;99.90;;;;;;4904275;29;20052;-95
2023/12/26 05:18:24;;;;;;;11.37;1.90;;;7.70;99.90;;;;;;4904292;29;20047;-94
2023/12/26 05:20:56;;;;;;;12.93;1.90;;;8.90;99.90;;;;;;4905011;29;20054;-94
2023/12/26 05:23:25;;;;;;;11.93;2.20;;;7.50;99.90;;;;;;4904392;29;20139;-95
2023/12/26 05:26:03;;;;;;;11.63;1.90;;;7.60;99.90;;;;;;4905154;29;20432;-95
2023/12/26 05:28:47;;;;;;;13.97;2.67;;;7.60;99.90;;;;;;4906235;29;20059;-95
2023/12/26 05:31:20;;;;;;;7.17;1.80;;;7.60;99.90;;;;;;4904190;29;20056;-94
2023/12/26 05:34:08;;;;;;;7.60;2.00;;;7.60;99.90;;;;;;4904298;29;20047;-96
2023/12/26 05:36:40;;;;;;;8.80;1.73;;;7.00;99.90;;;;;;4907331;29;20060;-95
2023/12/26 05:39:29;;;;;;;10.00;2.10;;;7.60;99.90;;;;;;4906387;29;20056;-96
2023/12/26 05:42:49;;;;;;;10.80;1.70;;;7.70;99.90;;;;;;4904618;29;20138;-95
2023/12/26 05:45:41;;;;;;;14.20;2.40;;;7.80;99.90;;;;;;4903688;29;20496;-96
2023/12/26 05:52:00;;;;;;;12.00;1.87;;;8.40;99.90;;;;;;4921962;29;20105;-94
2023/12/26 05:54:45;;;;;;;8.93;1.90;;;7.90;99.90;;;;;;4905923;29;20052;-94
2023/12/26 05:57:19;;;;;;;12.70;2.03;;;7.00;99.90;;;;;;4901996;29;20096;-94
2023/12/26 05:59:45;;;;;;;11.93;2.37;;;7.90;99.90;;;;;;4886211;29;20048;-94
2023/12/26 06:02:58;;;;;;;9.07;2.10;;;7.90;99.90;;;;;;4889938;29;20099;-95
2023/12/26 06:05:40;;;;;;;8.87;1.90;;;8.10;99.90;;;;;;4896590;29;20036;-93
2023/12/26 06:08:09;;;;;;;9.43;2.10;;;8.00;99.90;;;;;;4945492;23;20045;-94
2023/12/26 06:10:52;;;;;;;8.27;1.70;;;7.10;99.90;;;;;;4922820;29;20045;-92
2023/12/26 06:13:39;;;;;;;6.55;2.15;;;7.90;99.90;;;;;;4932737;29;20060;-95
2023/12/26 06:16:20;;;;;;;9.70;1.97;;;8.00;99.90;;;;;;4926268;29;20096;-95
2023/12/26 06:18:46;;;;;;;11.20;2.23;;;8.00;99.90;;;;;;4926564;29;20133;-93
2023/12/26 06:21:14;;;;;;;12.70;2.53;;;6.70;99.90;;;;;;4915689;29;20520;-94
2023/12/26 06:24:02;;;;;;;12.27;2.10;;;8.10;99.90;;;;;;4912357;29;20048;-95
2023/12/26 06:30:24;;;;;;;11.17;2.10;;;9.30;99.90;;;;;;4905194;29;20104;-94
2023/12/26 06:32:51;;;;;;;10.68;2.00;;;8.40;99.90;;;;;;4878184;29;20056;-95
2023/12/26 06:35:19;;;;;;;9.23;1.90;;;9.00;99.90;;;;;;4906411;29;20055;-94
2023/12/26 06:38:12;;;;;;;9.40;1.80;;;8.40;99.90;;;;;;4912412;29;20082;-95
2023/12/26 06:40:41;;;;;;;10.87;2.20;;;8.30;99.90;;;;;;4903886;29;20045;-94
2023/12/26 06:43:28;;;;;;;10.57;2.00;;;8.30;99.90;;;;;;4896117;29;20044;-94
2023/12/26 06:45:55;;;;;;;9.97;1.93;;;8.30;99.90;;;;;;4904292;29;20135;-94
2023/12/26 06:48:53;;;;;;;12.93;2.23;;;8.40;99.90;;;;;;4893263;29;20112;-95
2023/12/26 06:51:18;;;;;;;9.27;2.20;;;8.50;99.90;;;;;;4886129;29;20077;-93
2023/12/26 06:53:44;;;;;;;12.00;2.20;;;8.40;99.90;;;;;;4914864;29;20135;-94
2023/12/26 06:56:18;;;;;;;16.40;2.33;;;8.50;99.90;;;;;;4920538;29;20055;-93
2023/12/26 06:58:57;;;;;;;11.40;2.20;;;8.40;99.90;;;;;;4910700;29;20059;-93
2023/12/26 07:01:23;;;;;;;10.33;2.00;;;9.00;99.90;;;;;;4919655;23;20052;-93
2023/12/26 07:03:58;;;;;;;10.37;2.30;;;8.60;99.90;;;;;;4899289;29;20052;-93
2023/12/26 07:06:27;;;;;;;10.87;2.30;;;8.50;99.90;;;;;;4868297;29;20375;-93
2023/12/26 07:09:40;;;;;;;8.73;2.10;;;8.40;99.90;;;;;;4880171;29;20140;-89
2023/12/26 07:12:50;;;;;;;11.83;2.23;;;8.40;99.90;;;;;;4881899;29;20075;-86
2023/12/26 07:18:58;;;;;;;10.97;2.10;;;7.50;99.90;;;;;;4858092;29;20048;-86
2023/12/26 07:21:24;;;;;;;5.63;2.00;;;8.40;99.90;;;;;;5066862;23;20076;-86
2023/12/26 07:23:52;;;;;;;10.17;2.10;;;8.50;99.90;;;;;;4900113;29;20048;-86
2023/12/26 07:26:24;;;;;;;7.13;2.00;;;8.50;99.90;;;;;;4899826;29;20051;-87
2023/12/26 07:28:50;;;;;;;8.73;2.40;;;8.50;99.90;;;;;;4899940;29;20123;-86
2023/12/26 07:31:25;;;;;;;5.67;1.47;;;8.50;99.90;;;;;;4899042;29;20135;-86
2023/12/26 07:34:15;;;;;;;7.55;1.50;;;8.50;99.90;;;;;;4899136;29;20044;-86
2023/12/26 07:36:41;;;;;;;13.47;4.20;;;8.50;99.90;;;;;;4900421;29;20048;-85
2023/12/26 07:39:07;;;;;;;30.50;12.60;;;8.50;99.90;;;;;;4899057;29;20519;-87
2023/12/26 07:41:32;;;;;;;25.27;10.73;;;8.50;99.90;;;;;;4900794;29;20044;-87
2023/12/26 07:44:02;;;;;;;10.57;3.97;;;8.50;99.90;;;;;;4916716;29;20063;-91
2023/12/26 07:46:28;;;;;;;13.87;2.77;;;8.40;99.90;;;;;;4899597;29;20083;-86
2023/12/26 07:49:51;;;;;;;28.77;18.73;;;8.40;99.90;;;;;;4916260;29;20082;-89
2023/12/26 07:52:20;;;;;;;15.40;6.23;;;8.60;99.90;;;;;;4897698;29;20505;-87
2023/12/26 07:54:46;;;;;;;16.97;2.33;;;8.50;99.90;;;;;;4900760;29;20122;-88
2023/12/26 07:57:11;;;;;;;12.60;2.10;;;8.40;99.90;;;;;;4912249;29;20072;-89
2023/12/26 07:59:37;;;;;;;15.13;3.03;;;8.50;99.90;;;;;;4923523;29;20051;-88
2023/12/26 08:02:05;;;;;;;16.67;2.60;;;8.40;99.90;;;;;;4904727;29;20040;-89
2023/12/26 08:04:31;;;;;;;14.83;4.07;;;8.40;99.90;;;;;;4905562;29;20130;-88
2023/12/26 08:07:07;;;;;;;14.33;2.30;;;8.40;99.90;;;;;;4898904;29;20092;-88
2023/12/26 08:09:48;;;;;;;12.73;3.90;;;8.40;99.90;;;;;;4899971;29;20048;-87
2023/12/26 08:12:14;;;;;;;8.97;2.00;;;8.30;99.90;;;;;;4900378;29;20055;-86
2023/12/26 08:14:40;;;;;;;11.15;2.65;;;8.30;99.90;;;;;;4898975;29;20052;-86
2023/12/26 08:17:06;;;;;;;13.00;3.20;;;9.00;99.90;;;;;;4916111;29;20055;-84
2023/12/26 08:19:31;;;;;;;15.00;4.10;;;8.30;99.90;;;;;;4900061;29;20058;-85
2023/12/26 08:22:04;;;;;;;12.77;3.87;;;8.40;99.90;;;;;;4915261;29;20447;-86
2023/12/26 08:24:55;;;;;;;21.33;8.53;;;8.40;99.90;;;;;;4897476;29;20060;-89
2023/12/26 08:27:26;;;;;;;14.90;5.00;;;8.40;99.90;;;;;;4898618;29;20087;-85
2023/12/26 08:30:24;;;;;;;15.83;5.77;;;8.40;99.90;;;;;;4916138;29;20076;-84
2023/12/26 08:32:52;;;;;;;16.43;4.90;;;8.40;99.90;;;;;;4884046;29;20063;-84
2023/12/26 08:35:18;;;;;;;38.30;20.73;;;8.40;99.90;;;;;;4898656;29;20107;-84
2023/12/26 08:37:44;;;;;;;18.00;7.37;;;8.40;99.90;;;;;;4897426;29;20044;-85
2023/12/26 08:40:10;;;;;;;13.50;5.27;;;8.40;99.90;;;;;;4915107;29;20397;-85
2023/12/26 08:42:36;;;;;;;24.97;12.63;;;8.50;99.90;;;;;;4914793;29;20464;-85
2023/12/26 08:45:07;;;;;;;10.23;3.00;;;8.40;99.90;;;;;;4897851;29;20056;-85
2023/12/26 08:47:33;;;;;;;18.80;4.77;;;9.30;99.90;;;;;;4900776;29;20084;-85
2023/12/26 08:50:31;;;;;;;11.83;2.63;;;8.40;99.90;;;;;;4900631;29;20044;-85
2023/12/26 08:52:56;;;;;;;13.73;2.20;;;8.70;99.90;;;;;;4896975;29;20064;-89
2023/12/26 08:55:22;;;;;;;13.93;3.30;;;8.80;99.90;;;;;;4902651;29;20055;-84
2023/12/26 08:57:57;;;;;;;15.37;3.73;;;8.50;99.90;;;;;;4900481;29;20063;-85
2023/12/26 09:00:32;;;;;;;8.63;1.97;;;7.60;99.90;;;;;;4919725;29;20086;-85
2023/12/26 09:03:07;;;;;;;13.17;2.37;;;8.40;99.90;;;;;;4900457;29;20048;-85
2023/12/26 09:05:34;;;;;;;15.50;2.87;;;8.50;99.90;;;;;;4902257;29;20040;-85
2023/12/26 09:07:59;;;;;;;13.70;2.20;;;8.50;99.90;;;;;;4900327;29;20048;-84
2023/12/26 09:10:25;;;;;;;13.60;2.97;;;8.50;99.90;;;;;;4901356;29;20055;-85
2023/12/26 09:12:51;;;;;;;14.07;3.07;;;8.50;99.90;;;;;;4902604;29;20103;-85
2023/12/26 09:15:17;;;;;;;13.93;2.77;;;8.50;99.90;;;;;;4918944;29;20048;-86
2023/12/26 09:24:59;;;;;;;8.48;1.90;;;9.00;99.90;;;;;;4857818;29;20068;-84
2023/12/26 09:27:24;;;;;;;12.90;2.50;;;8.50;99.90;;;;;;4846396;29;20046;-87
2023/12/26 09:29:50;;;;;;;15.23;2.93;;;8.50;99.90;;;;;;4846596;29;20045;-85
2023/12/26 09:32:19;;;;;;;13.83;2.90;;;8.60;99.90;;;;;;4845475;29;20049;-85
2023/12/26 09:34:46;;;;;;;13.63;2.50;;;8.50;99.90;;;;;;4847067;29;20056;-87
2023/12/26 09:37:12;;;;;;;10.10;2.33;;;8.60;99.90;;;;;;4846352;29;20072;-85
2023/12/26 09:39:38;;;;;;;15.77;3.10;;;8.60;99.90;;;;;;4845524;29;20088;-87
2023/12/26 09:42:05;;;;;;;12.77;2.33;;;8.60;99.90;;;;;;4846149;29;20065;-85
2023/12/26 09:44:31;;;;;;;8.75;1.80;;;8.60;99.90;;;;;;4837704;29;20096;-85
2023/12/26 09:46:58;;;;;;;12.37;2.40;;;8.70;99.90;;;;;;4842273;29;20037;-88
2023/12/26 09:49:24;;;;;;;14.10;2.20;;;8.70;99.90;;;;;;4846814;29;20129;-86
2023/12/26 09:51:55;;;;;;;15.53;2.60;;;8.70;99.90;;;;;;4845422;29;20455;-86
2023/12/26 09:54:23;;;;;;;14.40;2.50;;;8.80;99.90;;;;;;4846791;29;20077;-86
2023/12/26 09:56:49;;;;;;;13.90;2.80;;;8.70;99.90;;;;;;4846745;29;20081;-88
2023/12/26 09:59:35;;;;;;;22.70;12.93;;;8.80;99.90;;;;;;4845366;29;20087;-88
2023/12/26 10:02:10;;;;;;;13.60;3.33;;;8.90;99.90;;;;;;4862889;29;20055;-88
2023/12/26 10:04:36;;;;;;;11.70;2.70;;;8.70;99.90;;;;;;4846744;29;20517;-84
2023/12/26 10:07:13;;;;;;;10.57;3.33;;;8.70;99.90;;;;;;4862295;29;20049;-87
2023/12/26 10:09:43;;;;;;;14.23;3.60;;;8.70;99.90;;;;;;4845991;29;20045;-87
2023/12/26 10:12:09;;;;;;;17.23;5.17;;;8.80;99.90;;;;;;4846117;29;20057;-88
2023/12/26 10:14:35;;;;;;;13.13;2.80;;;8.70;99.90;;;;;;4844987;29;20148;-88
2023/12/26 10:17:08;;;;;;;12.40;3.28;;;8.70;99.90;;;;;;4846009;29;20053;-86
2023/12/26 10:19:44;;;;;;;13.90;2.60;;;8.70;99.90;;;;;;4861604;29;20077;-87
2023/12/26 10:25:19;;;;;;;9.87;2.37;;;8.70;99.90;;;;;;4916452;29;20067;-87
2023/12/26 10:28:02;;;;;;;15.10;2.50;;;8.60;99.90;;;;;;4901008;29;20060;-87
2023/12/26 10:31:09;;;;;;;11.70;2.47;;;8.30;99.90;;;;;;4901466;29;20508;-88
2023/12/26 10:33:35;;;;;;;14.83;3.40;;;9.40;99.90;;;;;;4878674;29;20295;-87
2023/12/26 10:36:03;;;;;;;14.20;3.40;;;8.70;99.90;;;;;;4901204;29;20048;-88
2023/12/26 10:41:28;;;;;;;14.07;3.43;;;8.80;99.90;;;;;;4900801;29;20052;-86
2023/12/26 10:43:59;;;;;;;16.20;3.25;;;8.80;99.90;;;;;;4901208;29;20088;-87
2023/12/26 10:46:34;;;;;;;15.53;2.60;;;8.70;99.90;;;;;;4901764;29;20048;-87
2023/12/26 10:49:06;;;;;;;13.73;2.67;;;9.00;99.90;;;;;;4918010;29;20563;-87
2023/12/26 10:51:32;;;;;;;13.87;3.80;;;8.90;99.90;;;;;;4901754;29;20052;-88
2023/12/26 10:54:07;;;;;;;14.33;3.40;;;8.80;99.90;;;;;;4901341;29;20504;-89
2023/12/26 10:56:33;;;;;;;16.17;3.50;;;8.80;99.90;;;;;;4903365;29;20070;-88
2023/12/26 10:59:01;;;;;;;12.33;2.70;;;7.50;99.90;;;;;;4901774;29;20185;-88
2023/12/26 13:53:18;;;;;;;14.93;4.43;;;8.90;99.90;;;;;;4918929;29;20060;-88
2023/12/26 13:56:39;;;;;;;15.67;4.40;;;9.00;99.90;;;;;;4919505;29;20056;-88
2023/12/26 13:59:45;;;;;;;16.23;3.80;;;8.90;99.90;;;;;;4901777;29;20119;-87
2023/12/26 14:03:07;;;;;;;14.73;4.23;;;8.10;99.90;;;;;;4903084;29;20059;-87
2023/12/26 14:06:11;;;;;;;22.13;5.70;;;9.00;99.90;;;;;;4918031;29;20052;-88
2023/12/26 14:16:23;;;;;;;14.77;3.70;;;8.40;99.90;;;;;;4921638;29;20048;-87
2023/12/26 14:19:26;;;;;;;25.90;8.30;;;8.50;99.90;;;;;;4903075;29;20048;-87
2023/12/26 14:22:30;;;;;;;11.47;2.27;;;9.70;99.90;;;;;;4900568;29;20048;-87
2023/12/26 14:25:36;;;;;;;18.13;4.70;;;8.30;99.90;;;;;;4903760;29;20500;-87
2023/12/26 14:28:39;;;;;;;16.77;4.80;;;7.20;99.90;;;;;;4900962;29;20056;-88
2023/12/26 14:31:42;;;;;;;13.30;3.67;;;8.30;99.90;;;;;;4904774;23;20056;-87
2023/12/26 14:35:04;;;;;;;13.33;3.33;;;8.30;99.90;;;;;;4881927;29;20049;-88
2023/12/26 14:37:32;;;;;;;10.20;2.10;;;8.20;99.90;;;;;;4901984;23;20461;-87
2023/12/26 14:43:42;;;;;;;11.03;3.30;;;7.70;99.90;;;;;;4900336;29;20143;-87
2023/12/26 14:46:10;;;;;;;9.02;2.72;;;7.90;99.90;;;;;;4902142;29;20051;-88
2023/12/26 14:52:04;;;;;;;18.30;5.93;;;8.10;99.90;;;;;;4902707;29;20056;-87
2023/12/26 14:54:33;;;;;;;28.63;10.63;;;7.80;99.90;;;;;;4907542;23;20357;-87
2023/12/26 15:00:21;;;;;;;9.73;2.00;;;7.70;99.90;;;;;;4898436;29;20037;-89
2023/12/26 15:03:10;;;;;;;8.53;2.83;;;7.70;99.90;;;;;;4881977;29;20108;-88
2023/12/26 15:05:45;;;;;;;10.20;2.23;;;7.70;99.90;;;;;;4882652;29;20060;-87
2023/12/26 15:08:26;;;;;;;7.07;1.77;;;7.50;99.90;;;;;;4881383;29;20119;-87
2023/12/26 15:10:52;;;;;;;5.87;1.40;;;7.80;99.90;;;;;;4881707;29;20131;-87
2023/12/26 15:13:19;;;;;;;5.50;1.37;;;7.30;99.90;;;;;;4881625;29;20053;-87
2023/12/26 15:15:45;;;;;;;9.13;1.80;;;;;;;;;;4880402;29;20052;-87
2023/12/26 15:18:10;;;;;;;7.50;1.87;;;7.30;99.90;;;;;;4881294;29;20500;-88
2023/12/26 15:20:36;;;;;;;6.67;1.70;;;7.10;99.90;;;;;;4881740;29;20052;-88
2023/12/26 15:23:05;;;;;;;6.73;1.63;;;7.10;99.90;;;;;;4880455;29;20044;-87
2023/12/26 15:25:46;;;;;;;30.00;13.90;;;7.10;99.90;;;;;;4881812;29;20044;-87
2023/12/26 15:29:07;;;;;;;7.60;1.90;;;7.00;99.90;;;;;;4897911;29;20143;-87
2023/12/26 15:31:51;;;;;;;4.47;1.17;;;7.40;99.90;;;;;;4880681;29;20131;-88
2023/12/26 15:34:32;;;;;;;7.15;1.65;;;5.90;99.90;;;;;;4881275;29;20055;-87
2023/12/26 15:36:58;;;;;;;6.57;1.50;;;6.80;99.90;;;;;;4880488;29;20056;-87
2023/12/26 15:39:33;;;;;;;5.80;1.37;;;6.80;99.90;;;;;;4880948;29;20045;-87
2023/12/26 15:42:00;;;;;;;6.17;1.27;;;6.60;99.90;;;;;;4880935;29;20465;-87
2023/12/26 15:47:08;;;;;;;6.60;2.47;;;6.70;99.90;;;;;;4896759;29;20104;-87
2023/12/26 15:59:50;;;;;;;5.97;1.37;;;6.50;99.90;;;;;;4897122;29;20313;-91
2023/12/26 16:02:37;;;;;;;4.50;1.13;;;6.50;99.90;;;;;;4881964;29;20096;-92
2023/12/26 16:05:14;;;;;;;8.73;1.73;;;6.50;99.90;;;;;;4897501;29;20397;-92
2023/12/26 16:07:52;;;;;;;6.07;1.60;;;6.40;99.90;;;;;;4882508;29;20044;-92
2023/12/26 16:10:31;;;;;;;7.00;1.37;;;6.30;99.90;;;;;;4882642;29;20513;-91
2023/12/26 16:17:19;;;;;;;12.03;3.73;;;7.30;99.90;;;;;;4809156;29;20046;-91
2023/12/26 16:20:11;;;;;;;16.97;5.77;;;5.40;99.90;;;;;;4861372;23;20493;-91
2023/12/26 16:22:45;;;;;;;11.27;3.57;;;6.40;99.90;;;;;;4880747;29;20067;-91
2023/12/26 16:25:29;;;;;;;12.23;3.30;;;6.10;99.90;;;;;;4880946;29;20049;-91
2023/12/26 16:31:55;;;;;;;15.83;4.17;;;6.10;99.90;;;;;;4899379;29;19922;-91
2023/12/26 16:34:21;;;;;;;9.73;2.90;;;6.20;99.90;;;;;;4899247;29;20055;-91
2023/12/26 16:37:02;;;;;;;12.97;5.13;;;6.00;99.90;;;;;;4903087;29;20048;-92
2023/12/26 16:39:49;;;;;;;24.50;11.50;;;5.90;99.90;;;;;;4904333;23;20049;-92
2023/12/26 16:42:17;;;;;;;13.43;4.87;;;6.00;99.90;;;;;;4881570;29;20048;-92
2023/12/26 16:47:48;;;;;;;35.23;16.83;;;5.90;99.90;;;;;;4881446;29;20061;-92
2023/12/26 16:50:23;;;;;;;16.03;5.30;;;5.90;99.90;;;;;;4896947;29;20044;-91
2023/12/26 16:53:11;;;;;;;22.93;8.00;;;5.90;99.90;;;;;;4881539;29;20056;-92
2023/12/26 16:55:43;;;;;;;22.90;9.87;;;6.20;99.90;;;;;;4858881;29;20061;-92
2023/12/26 16:58:12;;;;;;;13.33;5.07;;;5.90;99.90;;;;;;4908372;23;20049;-92
2023/12/26 17:01:28;;;;;;;15.13;4.00;;;6.20;99.90;;;;;;4899384;29;20056;-91
2023/12/26 17:05:06;;;;;;;16.70;6.33;;;5.20;99.90;;;;;;4899099;29;20060;-92
2023/12/26 17:12:01;;;;;;;14.67;6.30;;;5.40;99.90;;;;;;4922099;29;20056;-90
2023/12/26 17:15:18;;;;;;;23.50;8.50;;;5.20;99.90;;;;;;4922000;29;20107;-91
2023/12/26 17:17:53;;;;;;;18.57;6.83;;;6.00;99.90;;;;;;4909823;23;20135;-91
2023/12/26 17:20:44;;;;;;;37.97;15.67;;;6.20;99.90;;;;;;4920002;29;20048;-91
2023/12/26 17:23:19;;;;;;;16.40;5.77;;;6.00;99.90;;;;;;4902398;29;20096;-91
2023/12/26 17:25:45;;;;;;;13.40;3.30;;;5.90;99.90;;;;;;4903510;29;20079;-92
2023/12/26 17:28:17;;;;;;;16.33;7.17;;;6.70;99.90;;;;;;4903391;29;20092;-91
2023/12/26 17:31:39;;;;;;;;;;;;;;;;;;;;;
2023/12/26 17:38:17;;;;;;;12.77;2.67;;;6.10;99.90;;;;;;4818617;29;20654;-92
2023/12/26 17:40:43;;;;;;;9.87;2.40;;;6.00;99.90;;;;;;4853562;29;20084;-91
2023/12/26 17:43:09;;;;;;;13.33;2.60;;;6.00;99.90;;;;;;4902644;29;20052;-91
2023/12/26 17:46:03;;;;;;;;;;;;;;;;;;;;;
2023/12/26 17:48:48;;;;;;;14.03;3.23;;;6.00;99.90;;;;;;4879929;29;20550;-91
2023/12/26 17:55:21;;;;;;;15.53;5.87;;;7.30;99.90;;;;;;4921305;29;20052;-91
2023/12/26 17:57:58;;;;;;;15.13;5.70;;;5.90;99.90;;;;;;4919180;23;20068;-92
2023/12/26 18:00:26;;;;;;;12.73;4.63;;;5.90;99.90;;;;;;4899734;29;20502;-90
2023/12/26 18:03:04;;;;;;;14.33;4.20;;;5.90;99.90;;;;;;4883872;29;20139;-91
2023/12/26 18:05:30;;;;;;;17.27;3.53;;;5.80;99.90;;;;;;4883473;29;20458;-91
2023/12/26 18:07:58;;;;;;;11.57;3.40;;;5.90;99.90;;;;;;4883615;29;20049;-91
2023/12/26 18:10:24;;;;;;;12.00;2.93;;;4.70;99.90;;;;;;4884091;29;20095;-91
2023/12/26 18:12:52;;;;;;;21.33;9.57;;;5.60;99.90;;;;;;4883071;29;20136;-91
2023/12/26 18:15:18;;;;;;;15.43;4.33;;;5.50;99.90;;;;;;4883963;29;20084;-91
2023/12/26 18:17:53;;;;;;;19.20;4.97;;;5.50;99.90;;;;;;4884247;29;20128;-91
2023/12/26 18:20:20;;;;;;;13.33;2.60;;;5.70;99.90;;;;;;4883054;29;20056;-91
2023/12/26 18:22:46;;;;;;;22.07;11.33;;;5.40;99.90;;;;;;4887262;29;20504;-91
2023/12/26 18:25:37;;;;;;;14.60;4.27;;;5.30;99.90;;;;;;4890981;23;20053;-91
2023/12/26 18:28:09;;;;;;;11.50;3.37;;;5.40;99.90;;;;;;4885408;29;20059;-91
2023/12/26 18:30:35;;;;;;;13.60;3.00;;;5.40;99.90;;;;;;4887472;29;20580;-91
2023/12/26 18:33:04;;;;;;;13.27;3.20;;;5.30;99.90;;;;;;4940431;23;20039;-91
2023/12/26 18:44:31;;;;;;;15.17;3.00;;;5.20;99.90;;;;;;4881677;29;20073;-91
2023/12/26 18:48:04;;;;;;;14.80;2.97;;;4.40;99.90;;;;;;4863310;29;20060;-91